createdAt,value
2018-10-17T00:03:29.579Z,18.67
2018-10-17T00:07:34.602Z,19.13
2018-10-17T00:11:39.597Z,19.30
2018-10-17T00:15:44.301Z,19.37
2018-10-17T00:19:48.942Z,19.27
2018-10-17T00:23:53.631Z,19.10
2018-10-17T00:27:58.358Z,20.63
2018-10-17T00:32:03.626Z,20.20
2018-10-17T00:36:08.433Z,20.57
2018-10-17T00:40:13.187Z,20.87
2018-10-17T00:44:17.874Z,20.97
2018-10-17T00:48:22.558Z,21.23
2018-10-17T00:52:27.262Z,21.33
2018-10-17T00:56:32.106Z,21.73
2018-10-17T01:00:36.876Z,22.37
2018-10-17T01:04:41.574Z,22.93
2018-10-17T01:08:46.258Z,23.23
2018-10-17T01:12:50.981Z,23.60
2018-10-17T01:16:55.668Z,24.33
2018-10-17T01:21:00.373Z,23.73
2018-10-17T01:25:05.202Z,22.93
2018-10-17T01:29:10.160Z,24.87
2018-10-17T01:33:14.804Z,22.80
2018-10-17T01:37:19.451Z,23.27
2018-10-17T01:41:24.146Z,23.80
2018-10-17T01:45:28.824Z,23.67
2018-10-17T01:49:34.553Z,24.30
2018-10-17T01:53:39.330Z,23.63
2018-10-17T01:57:44.001Z,23.33
2018-10-17T02:01:48.674Z,23.63
2018-10-17T02:05:53.759Z,22.83
2018-10-17T02:09:58.742Z,23.20
2018-10-17T02:14:03.826Z,24.10
2018-10-17T02:18:08.841Z,24.90
2018-10-17T02:22:13.678Z,26.20
2018-10-17T02:26:18.501Z,26.93
2018-10-17T02:30:23.166Z,28.27
2018-10-17T02:34:28.127Z,27.50
2018-10-17T02:38:32.965Z,28.37
2018-10-17T02:42:37.733Z,30.37
2018-10-17T02:46:43.329Z,30.07
2018-10-17T02:50:48.222Z,28.27
2018-10-17T02:54:53.222Z,28.03
2018-10-17T02:58:57.944Z,27.93
2018-10-17T03:03:02.562Z,26.43
2018-10-17T03:07:07.318Z,27.93
2018-10-17T03:11:12.359Z,27.60
2018-10-17T03:15:17.169Z,28.83
2018-10-17T03:19:22.989Z,27.67
2018-10-17T03:23:27.710Z,24.73
2018-10-17T03:27:32.550Z,21.43
2018-10-17T03:31:37.387Z,22.50
2018-10-17T03:35:42.450Z,24.17
2018-10-17T03:39:47.282Z,24.20
2018-10-17T03:43:52.207Z,24.63
2018-10-17T03:47:56.943Z,24.43
2018-10-17T03:52:01.719Z,25.63
2018-10-17T03:56:06.390Z,24.90
2018-10-17T04:00:11.199Z,22.90
2018-10-17T04:04:16.037Z,23.70
2018-10-17T04:08:20.694Z,23.17
2018-10-17T04:12:25.379Z,23.00
2018-10-17T04:16:30.198Z,23.80
2018-10-17T04:20:34.996Z,22.10
2018-10-17T04:24:39.886Z,21.40
2018-10-17T04:28:44.648Z,21.17
2018-10-17T04:32:49.361Z,21.43
2018-10-17T04:36:54.299Z,21.53
2018-10-17T04:40:58.920Z,27.40
2018-10-17T04:48:47.695Z,31.17
2018-10-17T04:52:52.456Z,24.27
2018-10-17T04:56:57.102Z,24.53
2018-10-17T05:01:01.826Z,23.70
2018-10-17T05:05:07.932Z,23.23
2018-10-17T05:09:12.715Z,23.57
2018-10-17T05:13:17.530Z,23.43
2018-10-17T05:17:22.145Z,23.23
2018-10-17T05:21:26.835Z,23.10
2018-10-17T05:25:31.494Z,23.13
2018-10-17T05:29:36.170Z,23.70
2018-10-17T05:33:40.908Z,25.63
2018-10-17T05:37:45.815Z,24.00
2018-10-17T05:41:50.315Z,22.97
2018-10-17T05:45:54.966Z,24.20
2018-10-17T05:49:59.643Z,23.90
2018-10-17T05:54:04.310Z,23.07
2018-10-17T05:58:09.018Z,22.40
2018-10-17T06:02:17.260Z,23.20
2018-10-17T06:06:21.847Z,22.37
2018-10-17T06:10:26.548Z,22.93
2018-10-17T06:14:31.177Z,21.60
2018-10-17T06:18:35.845Z,22.37
2018-10-17T06:22:40.762Z,22.80
2018-10-17T06:26:45.590Z,23.57
2018-10-17T06:30:50.342Z,22.80
2018-10-17T06:34:54.965Z,22.67
2018-10-17T06:38:59.644Z,22.20
2018-10-17T06:43:04.406Z,23.20
2018-10-17T06:47:09.426Z,22.77
2018-10-17T06:51:14.243Z,21.80
2018-10-17T06:55:18.881Z,97.67
2018-10-17T06:59:24.390Z,80.70
2018-10-17T07:03:29.061Z,29.17
2018-10-17T07:07:34.021Z,21.40
2018-10-17T07:11:38.947Z,20.37
2018-10-17T07:15:43.969Z,18.10
2018-10-17T07:19:48.657Z,20.07
2018-10-17T07:23:53.435Z,22.40
2018-10-17T07:27:58.227Z,23.20
2018-10-17T07:32:02.877Z,28.10
2018-10-17T07:36:07.590Z,28.07
2018-10-17T07:40:14.381Z,26.63
2018-10-17T07:44:19.107Z,24.07
2018-10-17T07:48:23.823Z,23.50
2018-10-17T07:52:28.551Z,22.00
2018-10-17T07:56:33.742Z,21.80
2018-10-17T08:00:38.619Z,24.53
2018-10-17T08:04:43.341Z,27.83
2018-10-17T08:08:47.972Z,24.33
2018-10-17T08:12:52.708Z,38.87
2018-10-17T08:16:57.439Z,23.37
2018-10-17T08:21:02.214Z,21.83
2018-10-17T08:25:07.719Z,22.57
2018-10-17T08:29:12.758Z,19.90
2018-10-17T08:33:17.547Z,20.33
2018-10-17T08:37:24.469Z,19.47
2018-10-17T08:41:28.872Z,18.87
2018-10-17T08:45:33.852Z,17.40
2018-10-17T08:49:38.636Z,17.07
2018-10-17T08:53:43.627Z,13.97
2018-10-17T08:57:48.650Z,14.60
2018-10-17T09:01:53.375Z,15.47
2018-10-17T09:05:59.147Z,14.27
2018-10-17T09:10:07.450Z,12.50
2018-10-17T09:14:12.421Z,10.00
2018-10-17T09:18:17.879Z,17.27
2018-10-17T09:22:22.886Z,11.00
2018-10-17T09:26:27.333Z,11.73
2018-10-17T09:30:32.340Z,11.63
2018-10-17T09:34:37.159Z,9.67
2018-10-17T09:38:43.986Z,11.50
2018-10-17T09:42:48.823Z,12.17
2018-10-17T09:46:53.633Z,14.70
2018-10-17T09:50:58.353Z,13.57
2018-10-17T09:55:03.994Z,13.47
2018-10-17T09:59:08.813Z,14.97
2018-10-17T10:03:13.690Z,16.80
2018-10-17T10:07:18.372Z,33.50
2018-10-17T10:11:24.417Z,16.47
2018-10-17T10:15:29.473Z,17.43
2018-10-17T10:19:34.307Z,17.50
2018-10-17T10:23:39.144Z,16.00
2018-10-17T10:27:43.818Z,17.20
2018-10-17T10:31:48.517Z,16.83
2018-10-17T10:35:53.691Z,14.67
2018-10-17T10:39:58.550Z,15.40
2018-10-17T10:44:03.441Z,15.63
2018-10-17T10:48:08.162Z,15.80
2018-10-17T10:52:12.957Z,17.23
2018-10-17T10:56:17.797Z,13.80
2018-10-17T11:00:22.623Z,13.30
2018-10-17T11:04:27.509Z,11.37
2018-10-17T11:08:32.380Z,11.13
2018-10-17T11:12:37.145Z,11.87
2018-10-17T11:16:41.922Z,12.10
2018-10-17T11:20:46.969Z,10.33
2018-10-17T11:24:53.147Z,11.07
2018-10-17T11:28:58.559Z,10.87
2018-10-17T11:33:03.375Z,10.67
2018-10-17T11:37:08.028Z,11.23
2018-10-17T11:41:13.887Z,8.93
2018-10-17T11:45:18.582Z,14.63
2018-10-17T11:49:24.081Z,46.93
2018-10-17T11:53:28.757Z,9.40
2018-10-17T11:57:33.452Z,10.33
2018-10-17T12:01:38.118Z,10.07
2018-10-17T12:05:43.568Z,8.90
2018-10-17T12:09:48.572Z,7.53
2018-10-17T12:13:53.539Z,7.57
2018-10-17T12:17:58.306Z,7.70
2018-10-17T12:22:02.924Z,7.37
2018-10-17T12:26:07.589Z,7.80
2018-10-17T12:30:14.490Z,6.90
2018-10-17T12:34:19.916Z,7.27
2018-10-17T12:38:24.601Z,7.50
2018-10-17T12:42:29.298Z,6.97
2018-10-17T12:46:34.259Z,6.30
2018-10-17T12:50:38.951Z,15.07
2018-10-17T12:54:43.852Z,19.83
2018-10-17T12:58:48.644Z,7.27
2018-10-17T13:02:53.358Z,5.07
2018-10-17T13:06:58.138Z,5.73
2018-10-17T13:11:02.880Z,5.00
2018-10-17T13:15:08.910Z,5.60
2018-10-17T13:19:14.014Z,18.83
2018-10-17T13:23:18.922Z,9.27
2018-10-17T13:27:23.672Z,5.10
2018-10-17T13:31:28.397Z,4.77
2018-10-17T13:35:33.221Z,3.93
2018-10-17T13:39:37.932Z,4.10
2018-10-17T13:43:42.871Z,4.27
2018-10-17T13:47:47.754Z,4.10
2018-10-17T13:51:52.518Z,4.43
2018-10-17T13:55:57.191Z,4.40
2018-10-17T14:00:01.970Z,4.00
2018-10-17T14:04:06.680Z,4.10
2018-10-17T14:08:12.204Z,4.30
2018-10-17T14:12:17.345Z,3.80
2018-10-17T14:16:22.083Z,4.23
2018-10-17T14:20:26.804Z,28.37
2018-10-17T14:24:31.544Z,5.20
2018-10-17T14:28:36.280Z,3.73
2018-10-17T14:32:41.137Z,3.73
2018-10-17T14:36:46.326Z,3.00
2018-10-17T14:40:51.191Z,3.07
2018-10-17T14:44:55.852Z,3.93
2018-10-17T14:49:00.537Z,3.60
2018-10-17T14:53:05.713Z,2.83
2018-10-17T14:57:10.468Z,2.93
2018-10-17T15:01:15.152Z,2.80
2018-10-17T15:05:19.914Z,3.60
2018-10-17T15:09:24.499Z,3.47
2018-10-17T15:13:29.165Z,3.37
2018-10-17T15:17:33.976Z,38.33
2018-10-17T15:21:38.781Z,7.20
2018-10-17T15:25:43.541Z,4.13
2018-10-17T15:29:48.447Z,4.53
2018-10-17T15:33:53.176Z,3.10
2018-10-17T15:37:58.043Z,2.63
2018-10-17T15:42:02.928Z,2.80
2018-10-17T15:46:08.173Z,2.50
2018-10-17T15:50:13.189Z,2.47
2018-10-17T15:54:17.998Z,3.03
2018-10-17T15:58:22.733Z,2.47
2018-10-17T16:02:27.684Z,2.23
2018-10-17T16:06:33.762Z,2.30
2018-10-17T16:10:39.298Z,2.30
2018-10-17T16:14:45.259Z,34.60
2018-10-17T16:18:50.248Z,5.00
2018-10-17T16:22:55.359Z,2.53
2018-10-17T16:27:02.253Z,2.37
2018-10-17T16:31:08.546Z,2.43
2018-10-17T16:35:13.651Z,2.50
2018-10-17T16:39:19.009Z,2.07
2018-10-17T16:43:23.948Z,35.60
2018-10-17T16:47:29.662Z,9.57
2018-10-17T16:51:35.125Z,2.40
2018-10-17T16:55:39.886Z,2.43
2018-10-17T16:59:44.604Z,2.40
2018-10-17T17:03:49.312Z,2.77
2018-10-17T17:07:54.060Z,2.33
2018-10-17T17:12:00.696Z,3.00
2018-10-17T17:16:06.202Z,2.90
2018-10-17T17:20:11.971Z,3.00
2018-10-17T17:24:16.765Z,2.67
2018-10-17T17:28:21.497Z,2.70
2018-10-17T17:32:27.550Z,3.33
2018-10-17T17:36:33.372Z,3.37
2018-10-17T17:40:38.227Z,3.30
2018-10-17T17:44:43.138Z,3.77
2018-10-17T17:48:47.737Z,3.80
2018-10-17T17:52:52.456Z,7.37
2018-10-17T17:56:57.097Z,5.07
2018-10-17T18:01:02.029Z,4.67
2018-10-17T18:05:07.450Z,4.37
2018-10-17T18:09:13.500Z,3.83
2018-10-17T18:13:18.152Z,4.30
2018-10-17T18:17:22.794Z,4.00
2018-10-17T18:21:27.564Z,4.10
2018-10-17T18:25:32.347Z,4.33
2018-10-17T18:29:37.036Z,4.60
2018-10-17T18:33:41.862Z,4.70
2018-10-17T18:37:48.460Z,5.43
2018-10-17T18:41:53.393Z,5.10
2018-10-17T18:46:01.127Z,5.10
2018-10-17T18:50:07.052Z,4.50
2018-10-17T18:54:11.727Z,4.57
2018-10-17T18:58:16.439Z,4.77
2018-10-17T19:02:21.092Z,5.27
2018-10-17T19:06:25.744Z,5.47
2018-10-17T19:10:31.616Z,5.23
2018-10-17T19:14:36.489Z,6.03
2018-10-17T19:18:41.147Z,6.23
2018-10-17T19:22:46.163Z,11.23
2018-10-17T19:26:51.077Z,11.93
2018-10-17T19:30:55.799Z,8.70
2018-10-17T19:35:01.421Z,6.53
2018-10-17T19:39:08.840Z,7.10
2018-10-17T19:43:13.471Z,7.00
2018-10-17T19:47:18.174Z,7.73
2018-10-17T19:51:23.045Z,6.47
2018-10-17T19:55:28.829Z,6.87
2018-10-17T19:59:33.687Z,7.30
2018-10-17T20:03:38.343Z,7.50
2018-10-17T20:07:43.099Z,6.90
2018-10-17T20:11:47.727Z,7.60
2018-10-17T20:15:52.547Z,6.73
2018-10-17T20:19:58.528Z,6.93
2018-10-17T20:24:03.591Z,7.03
2018-10-17T20:28:08.253Z,6.87
2018-10-17T20:32:12.951Z,6.60
2018-10-17T20:36:17.658Z,8.80
2018-10-17T20:40:22.370Z,6.50
2018-10-17T20:44:29.188Z,6.57
2018-10-17T20:48:34.056Z,7.17
2018-10-17T20:52:38.758Z,6.60
2018-10-17T20:56:43.643Z,7.20
2018-10-17T21:00:48.369Z,6.73
2018-10-17T21:04:53.064Z,7.80
2018-10-17T21:08:58.930Z,8.13
2018-10-17T21:13:03.692Z,6.90
2018-10-17T21:17:08.436Z,7.00
2018-10-17T21:21:13.146Z,7.13
2018-10-17T21:25:17.808Z,7.97
2018-10-17T21:29:22.616Z,8.50
2018-10-17T21:33:27.340Z,8.60
2018-10-17T21:37:32.221Z,8.60
2018-10-17T21:41:38.324Z,8.20
2018-10-17T21:45:43.797Z,8.23
2018-10-17T21:49:48.598Z,8.43
2018-10-17T21:53:53.999Z,9.37
2018-10-17T21:57:58.835Z,8.77
2018-10-17T22:02:03.761Z,8.30
2018-10-17T22:06:08.441Z,9.37
2018-10-17T22:10:14.603Z,8.50
2018-10-17T22:14:20.504Z,8.70
2018-10-17T22:18:25.376Z,9.00
2018-10-17T22:22:31.068Z,8.40
2018-10-17T22:26:35.912Z,8.83
2018-10-17T22:30:40.643Z,9.17
2018-10-17T22:34:45.703Z,9.43
2018-10-17T22:38:56.420Z,10.40
2018-10-17T22:43:01.327Z,9.07
2018-10-17T22:47:06.339Z,9.10
2018-10-17T22:51:11.076Z,9.93
2018-10-17T22:55:15.773Z,10.73
2018-10-17T22:59:20.432Z,9.73
2018-10-17T23:03:25.242Z,9.60
2018-10-17T23:07:30.096Z,10.23
2018-10-17T23:11:35.785Z,11.30
2018-10-17T23:15:41.820Z,11.00
2018-10-17T23:19:46.795Z,9.67
2018-10-17T23:23:51.517Z,9.50
2018-10-17T23:27:56.336Z,9.67
2018-10-17T23:32:01.383Z,10.20
2018-10-17T23:36:06.022Z,9.67
2018-10-17T23:40:10.768Z,9.33
2018-10-17T23:44:15.480Z,8.80
2018-10-17T23:48:20.110Z,10.03
2018-10-17T23:52:24.991Z,9.47
2018-10-17T23:56:29.816Z,9.43
